Time;durP1;ratioP1;P1;durP2;ratioP2;P2;SDS_P1;SDS_P2;PMS_P1;PMS_P2;Temp;Humidity;BMP_temperature;BMP_pressure;BME280_temperature;BME280_humidity;BME280_pressure;Samples;Min_cycle;Max_cycle;Signal;HPM_P1;HPM_P2
2022/02/07 00:02:02;;;;;;;15.35;1.70;;;4.80;99.90;;;;;;5057707;28;20404;-59
2022/02/07 00:04:34;;;;;;;10.38;1.52;;;4.80;99.90;;;;;;5065453;28;20048;-58
2022/02/07 00:07:00;;;;;;;17.17;2.13;;;4.80;99.90;;;;;;5060501;28;20013;-58
2022/02/07 00:09:25;;;;;;;14.75;1.80;;;4.80;99.90;;;;;;5065283;28;20021;-58
2022/02/07 00:11:51;;;;;;;20.30;4.00;;;4.80;99.90;;;;;;5065385;28;20027;-58
2022/02/07 00:14:17;;;;;;;16.13;1.90;;;4.80;99.90;;;;;;5058461;28;20024;-58
2022/02/07 00:16:44;;;;;;;9.90;1.83;;;4.80;99.90;;;;;;5064499;28;20084;-59
2022/02/07 00:19:16;;;;;;;12.38;1.67;;;4.80;99.90;;;;;;5060342;28;20091;-58
2022/02/07 00:21:41;;;;;;;10.75;2.10;;;4.80;99.90;;;;;;5061633;28;20021;-58
2022/02/07 00:24:07;;;;;;;12.05;1.38;;;4.90;99.90;;;;;;5061158;28;20399;-58
2022/02/07 00:26:32;;;;;;;16.73;1.58;;;4.90;99.90;;;;;;5064407;28;20062;-58
2022/02/07 00:28:58;;;;;;;17.05;1.73;;;4.80;99.90;;;;;;5067799;28;20016;-58
2022/02/07 00:31:23;;;;;;;14.55;2.45;;;4.80;99.90;;;;;;5063457;28;20032;-58
2022/02/07 00:33:49;;;;;;;16.90;2.20;;;4.80;99.90;;;;;;5063276;28;21386;-58
2022/02/07 00:36:18;;;;;;;12.90;1.80;;;4.70;99.90;;;;;;5066466;28;20380;-58
2022/02/07 00:38:46;;;;;;;15.15;1.90;;;4.70;99.90;;;;;;5060641;28;20021;-59
2022/02/07 00:43:43;;;;;;;12.55;1.88;;;4.70;99.90;;;;;;5059211;28;20020;-58
2022/02/07 00:46:13;;;;;;;16.60;3.05;;;4.70;99.90;;;;;;5065754;28;20012;-59
2022/02/07 00:48:40;;;;;;;;;;;4.70;99.90;;;;;;5064203;28;20505;-58
2022/02/07 00:51:06;;;;;;;11.68;1.80;;;4.70;99.90;;;;;;5069193;28;19920;-58
2022/02/07 00:53:33;;;;;;;17.65;1.60;;;4.70;99.90;;;;;;5065168;28;20021;-58
2022/02/07 00:56:00;;;;;;;13.07;1.65;;;4.70;99.90;;;;;;5070018;28;20032;-58
2022/02/07 00:58:26;;;;;;;11.98;1.92;;;4.80;99.90;;;;;;5068397;28;20064;-58
2022/02/07 01:00:52;;;;;;;15.52;2.15;;;4.80;99.90;;;;;;5062898;28;20515;-58
2022/02/07 01:03:19;;;;;;;12.73;1.75;;;4.80;99.90;;;;;;5060197;28;20021;-59
2022/02/07 01:05:45;;;;;;;9.65;1.67;;;4.90;99.90;;;;;;5070981;28;20019;-58
2022/02/07 01:08:11;;;;;;;12.38;1.17;;;4.90;99.90;;;;;;5065194;28;20028;-58
2022/02/07 01:10:51;;;;;;;10.52;1.30;;;4.80;99.90;;;;;;5065913;28;20029;-58
2022/02/07 01:13:33;;;;;;;8.70;1.42;;;4.80;99.90;;;;;;5057964;28;20392;-59
2022/02/07 01:16:11;;;;;;;8.77;0.73;;;4.80;99.90;;;;;;5064522;28;20043;-58
2022/02/07 01:18:57;;;;;;;7.07;2.10;;;4.60;99.90;;;;;;5056291;28;20029;-58
2022/02/07 01:56:37;;;;;;;4.50;0.30;;;3.80;99.90;;;;;;5062693;28;20027;-58
2022/02/07 01:59:03;;;;;;;1.90;0.60;;;3.70;99.90;;;;;;5064632;28;20032;-58
2022/02/07 02:01:29;;;;;;;6.55;0.50;;;3.70;99.90;;;;;;5060506;28;20058;-58
2022/02/07 02:03:55;;;;;;;4.35;0.50;;;3.70;99.90;;;;;;5060120;28;20040;-58
2022/02/07 02:06:22;;;;;;;6.38;0.60;;;3.70;99.90;;;;;;5056413;28;20376;-58
2022/02/07 02:08:48;;;;;;;4.65;0.50;;;3.70;99.90;;;;;;5066031;28;20469;-58
2022/02/07 02:11:14;;;;;;;7.50;0.85;;;3.70;99.90;;;;;;5062462;28;20036;-58
2022/02/07 02:13:55;;;;;;;5.43;0.50;;;3.70;99.90;;;;;;5059617;28;20025;-59
2022/02/07 02:35:23;;;;;;;12.70;1.45;;;3.80;99.90;;;;;;5066040;28;20016;-58
2022/02/07 02:37:56;;;;;;;11.48;1.10;;;3.80;99.90;;;;;;5059989;28;20024;-58
2022/02/07 02:45:39;;;;;;;12.68;1.60;;;3.90;99.90;;;;;;5060850;28;20031;-58
2022/02/07 02:48:17;;;;;;;12.20;1.50;;;3.90;99.90;;;;;;5066401;28;20017;-58
2022/02/07 02:50:44;;;;;;;10.00;2.28;;;3.90;99.90;;;;;;5059235;28;20440;-58
2022/02/07 02:53:12;;;;;;;8.73;1.40;;;3.90;99.90;;;;;;5063586;28;20021;-58
2022/02/07 02:55:40;;;;;;;10.35;1.40;;;3.90;99.90;;;;;;5063736;28;20017;-58
2022/02/07 02:58:07;;;;;;;14.43;1.55;;;3.90;99.90;;;;;;5063507;28;20493;-58
2022/02/07 03:00:34;;;;;;;15.20;2.72;;;3.90;99.90;;;;;;5063278;28;20063;-58
2022/02/07 03:03:00;;;;;;;9.32;1.20;;;3.90;99.90;;;;;;5058719;28;20032;-58
2022/02/07 03:05:25;;;;;;;12.07;1.20;;;3.90;99.90;;;;;;5068859;28;20025;-58
2022/02/07 03:07:51;;;;;;;16.52;1.63;;;3.90;99.90;;;;;;5063225;28;20491;-58
2022/02/07 03:13:14;;;;;;;16.15;1.77;;;3.90;99.90;;;;;;5058402;28;20043;-58
2022/02/07 03:18:25;;;;;;;20.08;3.28;;;3.90;99.90;;;;;;5061886;28;20086;-58
2022/02/07 03:20:50;;;;;;;14.82;2.05;;;4.00;99.90;;;;;;5066062;28;20024;-58
2022/02/07 03:23:16;;;;;;;11.07;1.88;;;4.00;99.90;;;;;;5062886;28;20459;-58
2022/02/07 03:25:42;;;;;;;11.55;1.63;;;4.00;99.90;;;;;;5066067;28;20430;-58
2022/02/07 03:28:08;;;;;;;14.13;1.85;;;4.00;99.90;;;;;;5060367;28;20021;-58
2022/02/07 03:30:35;;;;;;;20.77;2.13;;;4.00;99.90;;;;;;5060124;28;20029;-58
2022/02/07 03:33:01;;;;;;;11.48;1.65;;;4.00;99.90;;;;;;5067532;28;20051;-58
2022/02/07 03:35:26;;;;;;;13.60;2.17;;;4.00;99.90;;;;;;5062526;28;20496;-58
2022/02/07 03:37:52;;;;;;;12.88;1.90;;;4.10;99.90;;;;;;5064554;28;20496;-59
2022/02/07 03:40:17;;;;;;;11.95;3.08;;;4.00;99.90;;;;;;5064910;28;20033;-58
2022/02/07 03:42:43;;;;;;;18.52;2.38;;;4.10;99.90;;;;;;5062468;28;20029;-58
2022/02/07 03:45:09;;;;;;;14.68;4.38;;;4.10;99.90;;;;;;5059772;28;20052;-58
2022/02/07 03:47:35;;;;;;;18.77;2.13;;;4.10;99.90;;;;;;5062532;28;20039;-58
2022/02/07 03:50:00;;;;;;;18.85;2.65;;;4.10;99.90;;;;;;5060200;28;20397;-58
2022/02/07 03:52:29;;;;;;;13.82;2.25;;;4.10;99.90;;;;;;5068385;28;20377;-58
2022/02/07 03:54:54;;;;;;;10.55;1.80;;;4.20;99.90;;;;;;5059877;28;20021;-58
2022/02/07 03:57:20;;;;;;;12.15;1.60;;;4.20;99.90;;;;;;5061576;28;20083;-58
2022/02/07 03:59:46;;;;;;;17.10;2.50;;;4.20;99.90;;;;;;5065287;28;20104;-58
2022/02/07 04:02:20;;;;;;;13.90;1.85;;;4.20;99.90;;;;;;5055012;28;20025;-59
2022/02/07 04:04:53;;;;;;;17.50;1.77;;;4.30;99.90;;;;;;5058148;28;20017;-58
2022/02/07 04:07:19;;;;;;;11.88;1.65;;;4.30;99.90;;;;;;5059298;28;20052;-58
2022/02/07 04:09:49;;;;;;;15.55;2.72;;;4.40;99.90;;;;;;5066442;28;20048;-58
2022/02/07 04:12:19;;;;;;;11.98;2.00;;;4.40;99.90;;;;;;5063765;28;20058;-58
2022/02/07 04:14:45;;;;;;;11.50;1.70;;;4.40;99.90;;;;;;5065626;28;20021;-58
2022/02/07 04:17:16;;;;;;;17.33;2.22;;;4.50;99.90;;;;;;5060157;28;20029;-58
2022/02/07 04:19:41;;;;;;;16.17;2.00;;;4.50;99.90;;;;;;5061786;28;20023;-58
2022/02/07 04:22:08;;;;;;;13.50;2.08;;;4.60;99.90;;;;;;5063954;28;20020;-58
2022/02/07 04:24:35;;;;;;;20.33;2.42;;;4.60;99.90;;;;;;5056484;28;20484;-58
2022/02/07 04:27:01;;;;;;;20.83;2.28;;;4.60;99.90;;;;;;5057208;28;20100;-58
2022/02/07 04:29:26;;;;;;;10.40;1.38;;;4.60;99.90;;;;;;5065265;28;20103;-58
2022/02/07 04:31:52;;;;;;;14.50;1.95;;;4.60;99.90;;;;;;5065243;28;20318;-58
2022/02/07 04:34:18;;;;;;;11.93;1.52;;;4.60;99.90;;;;;;5057075;28;20029;-59
2022/02/07 04:36:46;;;;;;;11.90;1.80;;;4.70;99.90;;;;;;5060942;28;20025;-58
2022/02/07 04:39:12;;;;;;;15.70;2.72;;;4.70;99.90;;;;;;5064364;28;20036;-58
2022/02/07 04:41:42;;;;;;;19.33;1.80;;;4.70;99.90;;;;;;5059820;28;20112;-58
2022/02/07 04:44:12;;;;;;;17.67;2.05;;;4.80;99.90;;;;;;5060056;28;20018;-58
2022/02/07 04:49:24;;;;;;;16.20;2.25;;;4.80;99.90;;;;;;5059041;28;21160;-59
2022/02/07 04:51:57;;;;;;;14.30;2.22;;;4.90;99.90;;;;;;5061759;28;20025;-58
2022/02/07 04:59:51;;;;;;;17.73;2.65;;;5.00;99.90;;;;;;5066469;28;20025;-59
2022/02/07 05:02:38;;;;;;;12.95;2.05;;;5.00;99.90;;;;;;5068082;28;20025;-58
2022/02/07 05:16:00;;;;;;;20.23;2.38;;;5.10;99.90;;;;;;5067181;28;20075;-59
2022/02/07 05:18:28;;;;;;;8.95;1.65;;;5.10;99.90;;;;;;5062086;28;20033;-58
2022/02/07 05:20:53;;;;;;;14.38;1.65;;;5.10;99.90;;;;;;5058949;28;20124;-58
2022/02/07 05:23:19;;;;;;;14.70;2.17;;;5.10;99.90;;;;;;5065341;28;20112;-58
2022/02/07 05:25:45;;;;;;;16.25;2.58;;;5.10;99.90;;;;;;5068022;28;20526;-58
2022/02/07 05:28:11;;;;;;;13.45;2.97;;;5.10;99.90;;;;;;5058221;28;20021;-59
2022/02/07 05:30:36;;;;;;;10.55;1.85;;;5.10;99.90;;;;;;5062038;28;20075;-58
2022/02/07 05:33:02;;;;;;;11.20;1.63;;;5.20;99.90;;;;;;5066667;28;20017;-58
2022/02/07 05:35:28;;;;;;;14.73;2.10;;;5.20;99.90;;;;;;5064259;28;20020;-58
2022/02/07 05:38:03;;;;;;;14.25;1.92;;;5.20;99.90;;;;;;5066855;28;20103;-59
2022/02/07 05:43:00;;;;;;;14.60;3.28;;;5.20;99.90;;;;;;5059021;28;20020;-59
2022/02/07 05:45:26;;;;;;;12.88;1.58;;;5.10;99.90;;;;;;5061613;28;20025;-58
2022/02/07 05:47:52;;;;;;;10.38;1.58;;;5.10;99.90;;;;;;5062756;28;20465;-58
2022/02/07 05:50:33;;;;;;;13.05;1.83;;;5.20;99.90;;;;;;5057706;28;20398;-59
2022/02/07 05:52:59;;;;;;;15.23;2.30;;;5.20;99.90;;;;;;5059553;28;20111;-59
2022/02/07 05:55:26;;;;;;;16.58;2.00;;;5.10;99.90;;;;;;5060456;28;20103;-58
2022/02/07 05:57:52;;;;;;;10.30;1.90;;;5.10;99.90;;;;;;5065224;28;20024;-58
2022/02/07 06:00:17;;;;;;;15.82;3.80;;;5.10;99.90;;;;;;5064110;28;20029;-58
2022/02/07 06:02:44;;;;;;;14.52;2.13;;;5.10;99.90;;;;;;5068613;28;20039;-58
2022/02/07 06:05:10;;;;;;;14.82;2.33;;;5.20;99.90;;;;;;5055046;28;20469;-58
2022/02/07 06:07:35;;;;;;;14.65;2.40;;;5.20;99.90;;;;;;5063901;28;20024;-58
2022/02/07 06:10:01;;;;;;;13.82;1.65;;;5.20;99.90;;;;;;5063459;28;20403;-58
2022/02/07 06:12:26;;;;;;;15.95;1.83;;;5.10;99.90;;;;;;5062890;28;20037;-58
2022/02/07 06:14:53;;;;;;;14.63;1.88;;;5.10;99.90;;;;;;5061382;28;20029;-58
2022/02/07 06:17:18;;;;;;;17.40;2.72;;;5.10;99.90;;;;;;5062916;28;20038;-59
2022/02/07 06:19:44;;;;;;;14.43;1.80;;;5.10;99.90;;;;;;5067161;28;20028;-59
2022/02/07 06:22:10;;;;;;;16.23;2.28;;;5.10;99.90;;;;;;5061893;28;20048;-58
2022/02/07 06:24:36;;;;;;;17.10;2.60;;;5.10;99.90;;;;;;5061780;28;20024;-58
2022/02/07 06:27:01;;;;;;;18.73;4.05;;;5.10;99.90;;;;;;5065039;28;20013;-58
2022/02/07 06:29:27;;;;;;;12.30;1.60;;;5.10;99.90;;;;;;5053160;28;20058;-58
2022/02/07 06:31:52;;;;;;;15.55;2.40;;;5.10;99.90;;;;;;5053164;28;20385;-58
2022/02/07 06:34:18;;;;;;;7.55;1.80;;;5.10;99.90;;;;;;5053420;28;20033;-59
2022/02/07 06:36:43;;;;;;;8.85;1.58;;;5.10;99.90;;;;;;5069141;28;20036;-58
2022/02/07 06:39:09;;;;;;;10.38;1.95;;;5.10;99.90;;;;;;5088417;28;20036;-58
2022/02/07 06:41:35;;;;;;;9.55;1.55;;;5.10;99.90;;;;;;5094184;28;20075;-58
2022/02/07 06:44:00;;;;;;;10.75;1.50;;;5.10;99.90;;;;;;5093707;28;20020;-58
2022/02/07 06:46:26;;;;;;;11.82;1.40;;;5.10;99.90;;;;;;5093672;28;20024;-58
2022/02/07 06:48:52;;;;;;;17.83;1.58;;;5.10;99.90;;;;;;5093779;28;20533;-58
2022/02/07 06:51:17;;;;;;;10.88;1.70;;;5.20;99.90;;;;;;5083328;28;20432;-58
2022/02/07 06:53:43;;;;;;;9.57;1.42;;;5.20;99.90;;;;;;5072019;28;20020;-58
2022/02/07 06:56:08;;;;;;;11.60;1.88;;;5.20;99.90;;;;;;5073299;28;20050;-58
2022/02/07 06:58:34;;;;;;;11.52;1.55;;;5.20;99.90;;;;;;5058039;28;20104;-58
2022/02/07 07:01:00;;;;;;;14.65;2.15;;;5.10;99.90;;;;;;5069901;28;20393;-58
2022/02/07 07:03:26;;;;;;;12.10;1.50;;;5.10;99.90;;;;;;5069453;28;20416;-58
2022/02/07 07:05:54;;;;;;;12.73;2.55;;;5.10;99.90;;;;;;5067914;28;20257;-58
2022/02/07 07:08:19;;;;;;;17.85;2.15;;;5.10;99.90;;;;;;5069240;28;20020;-58
2022/02/07 07:10:46;;;;;;;10.05;1.52;;;5.10;99.90;;;;;;5069197;28;20020;-58
2022/02/07 07:13:21;;;;;;;7.70;1.25;;;5.10;99.90;;;;;;5069206;28;20468;-59
2022/02/07 07:15:52;;;;;;;7.18;1.20;;;5.10;99.90;;;;;;5071277;28;20136;-58
2022/02/07 07:18:20;;;;;;;13.50;2.20;;;5.10;99.90;;;;;;5072902;28;20480;-59
2022/02/07 07:20:46;;;;;;;12.60;1.98;;;5.00;99.90;;;;;;5071957;28;20472;-58
2022/02/07 07:23:12;;;;;;;7.88;1.50;;;5.00;99.90;;;;;;5073032;28;20070;-58
2022/02/07 07:25:40;;;;;;;11.60;1.63;;;5.00;99.90;;;;;;5053885;28;20020;-59
2022/02/07 07:28:11;;;;;;;12.48;1.50;;;5.00;99.90;;;;;;5071479;28;20028;-59
2022/02/07 07:30:43;;;;;;;8.73;1.63;;;5.00;99.90;;;;;;5071371;28;20531;-58
2022/02/07 07:33:14;;;;;;;6.93;0.90;;;5.00;99.90;;;;;;5072997;28;20032;-58
2022/02/07 07:35:39;;;;;;;10.93;1.52;;;5.00;99.90;;;;;;5072831;28;20074;-58
2022/02/07 07:38:05;;;;;;;10.20;1.42;;;5.00;99.90;;;;;;5079747;28;20024;-59
2022/02/07 07:40:30;;;;;;;10.73;1.30;;;5.00;99.90;;;;;;5081132;28;20388;-58
2022/02/07 07:42:56;;;;;;;10.13;1.15;;;4.90;99.90;;;;;;5072240;28;20081;-58
2022/02/07 07:45:27;;;;;;;11.52;1.23;;;5.00;99.90;;;;;;5072518;28;20032;-59
2022/02/07 07:47:58;;;;;;;11.40;1.30;;;5.00;99.90;;;;;;5072547;28;20071;-58
2022/02/07 07:50:44;;;;;;;11.20;1.58;;;5.00;99.90;;;;;;5072652;28;20020;-58
2022/02/07 07:54:03;;;;;;;7.65;1.23;;;5.00;99.90;;;;;;5072377;28;20078;-58
2022/02/07 08:02:00;;;;;;;11.98;1.52;;;5.00;99.90;;;;;;5072311;28;20140;-59
2022/02/07 08:04:31;;;;;;;12.40;1.52;;;5.10;99.90;;;;;;5072489;28;20148;-59
2022/02/07 08:07:21;;;;;;;11.63;2.00;;;5.20;99.90;;;;;;5072428;28;20021;-59
2022/02/07 08:09:46;;;;;;;16.73;2.10;;;5.20;99.90;;;;;;5071566;28;20480;-59
2022/02/07 08:12:13;;;;;;;21.20;2.50;;;5.30;99.90;;;;;;5072263;28;20445;-59
2022/02/07 08:14:39;;;;;;;11.15;1.70;;;5.30;99.90;;;;;;5071782;28;20297;-59
2022/02/07 08:17:07;;;;;;;14.70;2.20;;;5.40;99.90;;;;;;5071849;28;20045;-59
2022/02/07 08:19:33;;;;;;;14.57;2.22;;;5.40;99.90;;;;;;5071597;28;20033;-59
2022/02/07 08:22:00;;;;;;;19.83;3.50;;;5.40;99.90;;;;;;5070703;28;20029;-59
2022/02/07 08:24:27;;;;;;;15.52;2.25;;;5.50;99.90;;;;;;5071697;28;20017;-59
2022/02/07 08:26:54;;;;;;;19.23;3.25;;;5.50;99.90;;;;;;5072219;28;20025;-59
2022/02/07 08:29:21;;;;;;;15.15;3.15;;;5.50;99.90;;;;;;5071843;28;20484;-58
2022/02/07 08:31:46;;;;;;;12.98;2.38;;;5.50;99.90;;;;;;5069336;28;20516;-59
2022/02/07 08:34:12;;;;;;;19.58;3.60;;;5.50;99.90;;;;;;5071499;28;20365;-59
2022/02/07 08:36:37;;;;;;;14.60;2.40;;;5.60;99.90;;;;;;5071764;28;20032;-59
2022/02/07 08:39:04;;;;;;;14.07;1.90;;;5.60;99.90;;;;;;5074205;28;20477;-59
2022/02/07 08:41:30;;;;;;;19.58;2.25;;;5.70;99.90;;;;;;5071795;28;20036;-59
2022/02/07 08:43:57;;;;;;;19.55;3.40;;;5.70;99.90;;;;;;5070972;28;20134;-59
2022/02/07 08:46:22;;;;;;;15.13;2.38;;;5.80;99.90;;;;;;5072872;28;20035;-59
2022/02/07 08:48:49;;;;;;;11.75;2.05;;;5.90;99.90;;;;;;5072314;28;20119;-58
2022/02/07 08:51:19;;;;;;;20.63;1.75;;;5.90;99.90;;;;;;5070983;28;20028;-58
2022/02/07 08:53:46;;;;;;;11.55;1.42;;;6.00;99.90;;;;;;5072671;28;20032;-59
2022/02/07 08:56:13;;;;;;;13.20;1.73;;;6.00;99.90;;;;;;5072446;28;20058;-59
2022/02/07 08:58:43;;;;;;;14.90;2.13;;;6.10;99.90;;;;;;5072621;28;20056;-59
2022/02/07 09:06:29;;;;;;;17.52;2.22;;;6.20;99.90;;;;;;5068170;28;20012;-59
2022/02/07 09:09:07;;;;;;;13.18;2.35;;;6.30;99.90;;;;;;5068682;28;20104;-59
2022/02/07 09:11:33;;;;;;;15.40;2.22;;;6.30;99.90;;;;;;5069109;28;20036;-59
2022/02/07 09:14:08;;;;;;;15.07;2.00;;;6.40;99.90;;;;;;5071269;28;20024;-59
2022/02/07 09:16:33;;;;;;;13.10;1.85;;;6.50;99.90;;;;;;5067766;28;20044;-59
2022/02/07 09:19:00;;;;;;;11.75;2.17;;;6.50;99.90;;;;;;5068300;28;20495;-59
2022/02/07 09:21:28;;;;;;;17.10;3.42;;;6.60;99.90;;;;;;5071306;28;20035;-59
2022/02/07 09:23:55;;;;;;;16.38;2.15;;;6.60;99.90;;;;;;5071647;28;20515;-59
2022/02/07 09:26:21;;;;;;;16.13;2.58;;;6.70;99.90;;;;;;5072346;28;20087;-59
2022/02/07 09:28:46;;;;;;;17.70;2.65;;;6.80;99.90;;;;;;5071933;28;20533;-59
2022/02/07 09:31:14;;;;;;;19.50;2.42;;;6.80;99.90;;;;;;5071825;28;20028;-59
2022/02/07 09:33:41;;;;;;;14.68;2.65;;;6.90;99.90;;;;;;5071532;28;20043;-59
2022/02/07 09:36:07;;;;;;;20.13;2.70;;;6.90;99.90;;;;;;5071821;28;20052;-59
2022/02/07 09:38:33;;;;;;;16.98;2.38;;;7.10;99.90;;;;;;5082482;28;20036;-59
2022/02/07 09:40:59;;;;;;;11.07;1.95;;;7.10;99.90;;;;;;5091452;28;20036;-59
2022/02/07 09:43:31;;;;;;;13.50;2.55;;;7.20;99.90;;;;;;5091002;28;20089;-59
2022/02/07 09:46:12;;;;;;;14.50;2.72;;;7.30;99.90;;;;;;5091902;28;20033;-59
2022/02/07 09:48:42;;;;;;;18.05;2.60;;;7.30;99.90;;;;;;5092016;28;20058;-59
2022/02/07 09:51:09;;;;;;;20.08;2.85;;;7.40;99.90;;;;;;5091766;28;20024;-59
2022/02/07 09:53:35;;;;;;;10.30;2.47;;;7.50;99.90;;;;;;5091736;28;20036;-59
2022/02/07 09:56:05;;;;;;;13.88;2.28;;;7.60;99.90;;;;;;5091438;28;20097;-59
2022/02/07 09:58:37;;;;;;;17.67;2.88;;;7.80;99.90;;;;;;5091615;28;20115;-59
2022/02/07 10:01:10;;;;;;;14.88;2.30;;;7.80;99.90;;;;;;5091518;28;20118;-60
2022/02/07 10:03:47;;;;;;;15.13;2.50;;;8.00;99.90;;;;;;5091532;28;20069;-59
2022/02/07 10:09:13;;;;;;;15.52;2.70;;;8.30;99.90;;;;;;5091739;28;20021;-59
2022/02/07 10:12:33;;;;;;;18.15;2.17;;;8.30;99.90;;;;;;5070207;28;20051;-58
2022/02/07 10:14:55;;;;;;;12.35;2.47;;;8.30;99.90;;;;;;5064682;28;20091;-59
2022/02/07 10:17:35;;;;;;;20.48;3.30;;;8.40;99.90;;;;;;5070955;28;20092;-59
2022/02/07 10:20:28;;;;;;;19.13;3.28;;;8.50;99.90;;;;;;5068038;28;20109;-59
2022/02/07 10:39:51;;;;;;;11.38;1.80;;;9.90;96.90;;;;;;5070143;28;20024;-59
2022/02/07 10:45:05;;;;;;;6.55;1.63;;;9.60;96.10;;;;;;5070510;28;20563;-59
2022/02/07 10:47:46;;;;;;;15.18;2.50;;;9.50;96.30;;;;;;5069128;28;20024;-59
2022/02/07 10:50:15;;;;;;;10.55;1.85;;;9.30;96.40;;;;;;5070532;28;20047;-59
2022/02/07 10:53:00;;;;;;;11.20;1.65;;;9.30;96.50;;;;;;5069560;28;20031;-60
2022/02/07 10:55:35;;;;;;;11.55;2.00;;;9.30;96.20;;;;;;5066680;28;20043;-59
2022/02/07 10:58:05;;;;;;;13.65;2.15;;;9.20;96.10;;;;;;5070232;28;20480;-60
2022/02/07 11:00:40;;;;;;;10.60;2.22;;;9.10;96.30;;;;;;5069931;28;20405;-59
2022/02/07 11:03:12;;;;;;;10.85;1.55;;;9.80;96.80;;;;;;5070467;28;20372;-59
2022/02/07 11:05:45;;;;;;;9.85;1.45;;;11.30;94.60;;;;;;5069920;28;20100;-59
2022/02/07 11:11:07;;;;;;;12.75;2.67;;;11.20;91.20;;;;;;5054928;28;20033;-59
2022/02/07 11:16:11;;;;;;;17.55;2.45;;;10.30;92.10;;;;;;5059471;28;20049;-59
2022/02/07 11:19:02;;;;;;;13.93;2.25;;;10.10;92.10;;;;;;5049791;28;20040;-59
2022/02/07 11:21:44;;;;;;;10.82;1.73;;;10.00;92.50;;;;;;5049539;28;20037;-59
2022/02/07 11:24:28;;;;;;;14.27;1.95;;;10.20;93.10;;;;;;5049493;28;20021;-59
2022/02/07 11:26:53;;;;;;;14.80;1.95;;;10.50;92.70;;;;;;5049904;28;20025;-59
2022/02/07 11:29:47;;;;;;;11.55;1.85;;;10.60;92.30;;;;;;5049683;28;20032;-59
2022/02/07 11:32:43;;;;;;;10.75;1.70;;;11.50;92.70;;;;;;5049798;28;20385;-59
2022/02/07 11:35:17;;;;;;;9.55;1.55;;;12.80;90.10;;;;;;5044471;28;20044;-59
2022/02/07 11:38:09;;;;;;;8.15;1.77;;;14.40;85.70;;;;;;5057140;28;20024;-59
2022/02/07 11:40:37;;;;;;;6.78;1.50;;;16.50;81.50;;;;;;5089213;28;20042;-60
2022/02/07 11:43:08;;;;;;;6.28;1.13;;;18.40;73.80;;;;;;5089734;28;20101;-60
2022/02/07 11:45:52;;;;;;;10.15;2.13;;;19.90;67.00;;;;;;5083943;28;20024;-60
2022/02/07 11:48:25;;;;;;;4.90;1.30;;;19.50;60.50;;;;;;5061289;28;20024;-60
2022/02/07 11:50:55;;;;;;;5.85;1.38;;;20.10;59.10;;;;;;5069006;28;20028;-60
2022/02/07 11:53:26;;;;;;;5.43;1.15;;;20.00;56.50;;;;;;5067121;28;20043;-59
2022/02/07 11:56:06;;;;;;;9.23;1.88;;;19.20;57.20;;;;;;5063696;28;20120;-59
2022/02/07 11:58:48;;;;;;;7.90;1.35;;;18.30;58.70;;;;;;5065316;28;20025;-60
2022/02/07 12:01:17;;;;;;;10.13;1.98;;;17.30;59.90;;;;;;5066073;28;20066;-59
2022/02/07 12:03:50;;;;;;;8.25;1.40;;;17.50;61.80;;;;;;5064016;28;20408;-60
2022/02/07 12:06:24;;;;;;;8.02;1.27;;;18.90;59.60;;;;;;5069305;28;20086;-59
2022/02/07 12:08:50;;;;;;;7.90;1.42;;;20.60;57.00;;;;;;5073067;28;20028;-60
2022/02/07 12:11:16;;;;;;;11.30;1.77;;;21.80;54.70;;;;;;5072192;28;20060;-60
2022/02/07 12:13:43;;;;;;;8.18;1.75;;;22.90;52.30;;;;;;5072397;28;20114;-60
2022/02/07 12:16:21;;;;;;;8.65;1.88;;;22.90;50.90;;;;;;5070832;28;20151;-60
2022/02/07 12:19:08;;;;;;;6.50;1.35;;;22.60;50.00;;;;;;5067241;28;20036;-60
2022/02/07 12:21:33;;;;;;;6.80;1.52;;;21.40;49.50;;;;;;5070247;28;20020;-60
2022/02/07 12:24:04;;;;;;;7.75;2.00;;;20.20;51.60;;;;;;5071698;28;20029;-60
2022/02/07 12:26:36;;;;;;;8.23;1.40;;;19.30;53.30;;;;;;5066882;28;20036;-60
2022/02/07 12:29:08;;;;;;;8.80;1.98;;;18.20;54.00;;;;;;5050890;28;20029;-60
2022/02/07 12:31:40;;;;;;;8.65;1.60;;;17.20;56.30;;;;;;5050839;28;20241;-59
2022/02/07 12:34:12;;;;;;;11.38;2.00;;;17.20;58.30;;;;;;5053881;28;20064;-60
2022/02/07 12:36:42;;;;;;;9.60;1.42;;;18.10;57.50;;;;;;5103014;28;20533;-60
2022/02/07 12:39:13;;;;;;;;;;;18.30;54.40;;;;;;5095459;28;20098;-60
2022/02/07 12:41:38;;;;;;;5.32;1.13;;;17.50;54.90;;;;;;5095736;28;20279;-59
2022/02/07 12:44:07;;;;;;;6.53;1.30;;;16.60;57.30;;;;;;5095764;28;20024;-59
2022/02/07 12:46:34;;;;;;;8.93;1.57;;;16.00;58.50;;;;;;5096390;28;20024;-59
2022/02/07 12:49:03;;;;;;;5.05;1.05;;;15.40;59.80;;;;;;5096067;28;20254;-60
2022/02/07 12:51:32;;;;;;;6.38;0.95;;;15.80;61.50;;;;;;5095962;28;20147;-59
2022/02/07 12:53:59;;;;;;;5.30;1.20;;;16.20;58.50;;;;;;5095475;28;20063;-59
2022/02/07 12:56:30;;;;;;;5.95;1.45;;;16.50;58.20;;;;;;5095882;28;20111;-60
2022/02/07 12:59:12;;;;;;;6.55;1.10;;;17.10;57.00;;;;;;5095824;28;20032;-59
2022/02/07 13:01:42;;;;;;;6.30;1.05;;;17.60;56.40;;;;;;5095663;28;20028;-60
2022/02/07 13:04:16;;;;;;;6.22;1.10;;;18.40;55.60;;;;;;5079247;28;20029;-60
2022/02/07 13:06:48;;;;;;;5.28;1.30;;;18.90;54.20;;;;;;5075517;28;20108;-60
2022/02/07 13:09:42;;;;;;;6.22;1.27;;;18.70;53.70;;;;;;5075355;28;20086;-60
2022/02/07 13:14:49;;;;;;;7.53;1.30;;;16.70;55.50;;;;;;5075179;28;20028;-60
2022/02/07 13:17:18;;;;;;;5.00;1.27;;;16.00;57.40;;;;;;5075025;28;20444;-60
2022/02/07 13:19:54;;;;;;;7.07;1.10;;;15.80;59.40;;;;;;5075362;28;20033;-60
2022/02/07 13:22:23;;;;;;;5.82;1.55;;;16.20;58.90;;;;;;5075064;28;20035;-60
2022/02/07 13:24:54;;;;;;;7.93;1.53;;;16.50;58.50;;;;;;5074844;28;20012;-60
2022/02/07 13:27:22;;;;;;;6.88;0.90;;;17.30;57.00;;;;;;5075059;28;20480;-60
2022/02/07 13:29:51;;;;;;;9.80;1.50;;;17.60;55.40;;;;;;5075145;28;20024;-60
2022/02/07 13:32:18;;;;;;;8.20;1.45;;;16.90;55.90;;;;;;5075239;28;20024;-60
2022/02/07 13:34:46;;;;;;;6.57;1.20;;;16.10;57.50;;;;;;5075074;28;20035;-60
2022/02/07 13:37:15;;;;;;;9.77;1.40;;;15.40;58.90;;;;;;5074777;28;20035;-60
2022/02/07 13:40:06;;;;;;;5.57;1.33;;;14.80;60.60;;;;;;5054717;28;20497;-60
2022/02/07 13:42:40;;;;;;;10.82;1.77;;;14.40;62.30;;;;;;5054812;28;20039;-60
2022/02/07 13:45:08;;;;;;;5.60;1.20;;;14.00;63.30;;;;;;5054404;28;20386;-60
2022/02/07 13:47:35;;;;;;;5.20;1.10;;;13.70;64.40;;;;;;5072839;28;20107;-60
2022/02/07 13:50:06;;;;;;;5.53;1.00;;;13.80;65.00;;;;;;5072883;28;20124;-60
2022/02/07 13:52:38;;;;;;;5.97;1.65;;;14.20;64.50;;;;;;5071945;28;20082;-60
2022/02/07 13:55:21;;;;;;;6.88;1.20;;;14.80;63.00;;;;;;5054510;28;20112;-60
2022/02/07 13:58:00;;;;;;;5.85;1.10;;;16.10;61.10;;;;;;5071487;28;20024;-60
2022/02/07 14:00:30;;;;;;;6.43;1.77;;;17.10;58.40;;;;;;5071938;28;20491;-60
2022/02/07 14:03:22;;;;;;;;;;;17.80;56.50;;;;;;5074454;28;20067;-60
2022/02/07 14:05:51;;;;;;;5.20;1.10;;;17.90;55.90;;;;;;5071678;28;19940;-60
2022/02/07 14:08:39;;;;;;;5.18;1.25;;;17.90;55.50;;;;;;5073496;28;20110;-60
2022/02/07 14:11:13;;;;;;;6.88;1.58;;;18.30;54.80;;;;;;5070535;28;20029;-60
2022/02/07 14:13:40;;;;;;;7.30;1.48;;;18.60;54.00;;;;;;5071072;28;20025;-60
2022/02/07 14:16:08;;;;;;;3.13;0.82;;;18.80;53.40;;;;;;5069825;28;20044;-60
2022/02/07 14:18:37;;;;;;;5.50;1.00;;;18.80;53.30;;;;;;5072032;28;20028;-60
2022/02/07 14:21:10;;;;;;;6.53;0.90;;;19.40;53.40;;;;;;5064428;28;20562;-60
2022/02/07 14:23:37;;;;;;;5.65;1.08;;;20.10;51.80;;;;;;5068341;28;20108;-61
2022/02/07 14:26:15;;;;;;;4.03;1.23;;;20.70;51.00;;;;;;5057137;28;20099;-61
2022/02/07 14:28:41;;;;;;;5.70;1.58;;;20.50;49.10;;;;;;5063441;28;20078;-60
2022/02/07 14:31:08;;;;;;;6.25;1.30;;;20.00;48.90;;;;;;5072365;28;20032;-61
2022/02/07 14:33:34;;;;;;;4.82;1.38;;;20.10;49.10;;;;;;5072280;28;20415;-60
2022/02/07 14:35:59;;;;;;;5.68;1.23;;;20.10;48.20;;;;;;5072304;28;20028;-60
2022/02/07 14:38:25;;;;;;;5.78;1.67;;;19.60;48.90;;;;;;5083580;28;20031;-61
2022/02/07 14:40:51;;;;;;;3.22;1.00;;;19.00;49.40;;;;;;5075496;28;20031;-60
2022/02/07 14:43:26;;;;;;;3.65;1.20;;;18.80;50.40;;;;;;5075256;28;20067;-61
2022/02/07 14:46:00;;;;;;;4.72;1.42;;;18.90;50.80;;;;;;5068582;28;20400;-60
2022/02/07 14:48:26;;;;;;;7.70;1.58;;;19.00;51.10;;;;;;5073699;28;20027;-60
2022/02/07 14:50:52;;;;;;;8.30;2.58;;;19.30;50.00;;;;;;5071647;28;20392;-60
2022/02/07 14:53:17;;;;;;;8.05;3.10;;;19.20;50.10;;;;;;5071504;28;20036;-60
2022/02/07 14:55:43;;;;;;;5.68;1.52;;;19.30;50.40;;;;;;5071036;28;20496;-61
2022/02/07 14:58:09;;;;;;;4.53;1.20;;;19.50;50.60;;;;;;5072794;28;20405;-61
2022/02/07 15:00:35;;;;;;;4.30;1.20;;;19.30;49.70;;;;;;5066660;28;20384;-60
2022/02/07 15:03:04;;;;;;;3.70;1.45;;;19.20;50.10;;;;;;5066004;28;20032;-61
2022/02/07 15:05:29;;;;;;;6.00;2.13;;;19.10;50.30;;;;;;5066478;28;20028;-61
2022/02/07 15:07:56;;;;;;;6.40;2.30;;;19.00;50.40;;;;;;5063725;28;20117;-60
2022/02/07 15:10:22;;;;;;;4.43;1.63;;;18.90;50.00;;;;;;5064886;28;20516;-61
2022/02/07 15:12:49;;;;;;;4.50;1.42;;;18.90;50.80;;;;;;5065810;28;20081;-61